Time;durP1;ratioP1;P1;durP2;ratioP2;P2;SDS_P1;SDS_P2;PMS_P1;PMS_P2;Temp;Humidity;BMP_temperature;BMP_pressure;BME280_temperature;BME280_humidity;BME280_pressure;Samples;Min_cycle;Max_cycle;Signal;HPM_P1;HPM_P2
2022/08/03 00:01:41;;;;;;;5.40;3.60;;;23.80;78.00;;;24.83;50.58;100593.47;5014265;28;20643;-73
2022/08/03 00:04:09;;;;;;;3.27;3.07;;;23.80;78.30;;;24.80;50.52;100596.56;5031327;28;20633;-75
2022/08/03 00:06:37;;;;;;;4.50;3.67;;;23.70;78.80;;;24.85;50.62;100594.13;5031246;28;20727;-74
2022/08/03 00:09:04;;;;;;;3.17;2.83;;;23.70;79.20;;;24.89;50.79;100599.88;5031194;28;20644;-71
2022/08/03 00:11:32;;;;;;;3.30;3.10;;;23.80;79.50;;;24.80;50.45;100599.25;5030105;28;20685;-72
2022/08/03 00:13:59;;;;;;;3.70;3.40;;;23.70;79.30;;;24.80;51.00;100601.09;5032150;28;20619;-73
2022/08/03 00:16:26;;;;;;;6.10;3.50;;;23.70;79.90;;;24.72;51.29;100601.25;5030516;28;20645;-71
2022/08/03 00:18:53;;;;;;;20.43;3.83;;;23.60;80.30;;;24.53;51.74;100603.66;5033536;28;20605;-72
2022/08/03 00:21:20;;;;;;;4.73;3.50;;;23.60;80.70;;;24.60;50.79;100601.84;5014975;28;21028;-72
2022/08/03 00:23:47;;;;;;;3.97;3.13;;;23.50;80.80;;;24.64;50.65;100602.25;5033046;28;20609;-74
2022/08/03 00:26:19;;;;;;;14.13;4.23;;;23.50;80.60;;;24.69;50.54;100594.47;5033344;28;20617;-71
2022/08/03 00:28:47;;;;;;;3.30;3.00;;;23.50;80.40;;;24.64;49.93;100603.06;5031458;28;20700;-72
2022/08/03 00:31:15;;;;;;;3.23;3.03;;;23.50;80.70;;;24.64;49.63;100600.41;5032090;28;20633;-71
2022/08/03 00:33:41;;;;;;;3.20;2.90;;;23.50;79.50;;;24.64;49.25;100603.06;5030782;28;20623;-72
2022/08/03 00:36:28;;;;;;;3.63;3.00;;;23.50;78.90;;;24.61;47.16;100598.16;5013412;28;20613;-71
2022/08/03 00:38:55;;;;;;;3.33;2.90;;;23.50;76.40;;;24.54;48.64;100596.47;5013340;28;20676;-73
2022/08/03 00:41:22;;;;;;;2.53;2.43;;;23.40;77.30;;;24.49;48.07;100594.41;5031537;28;21246;-71
2022/08/03 00:43:49;;;;;;;4.20;2.60;;;23.40;76.60;;;24.45;46.23;100595.84;5027325;28;20637;-74
2022/08/03 00:46:16;;;;;;;2.90;2.70;;;23.30;74.90;;;24.49;46.30;100591.75;5030176;28;20764;-71
2022/08/03 00:48:51;;;;;;;3.13;2.83;;;23.30;74.50;;;24.42;46.53;100598.94;5030857;28;21236;-75
2022/08/03 00:51:20;;;;;;;2.90;2.80;;;23.30;74.60;;;24.42;46.20;100603.44;5014042;28;20686;-72
2022/08/03 00:53:48;;;;;;;2.43;2.33;;;23.20;74.80;;;24.35;46.79;100598.06;5015219;28;20612;-71
2022/08/03 00:56:16;;;;;;;3.27;2.97;;;23.20;75.00;;;24.28;47.04;100594.56;5012810;28;20640;-71
2022/08/03 00:58:45;;;;;;;3.73;2.90;;;23.10;75.20;;;24.20;47.48;100597.41;5030933;28;21173;-71
2022/08/03 01:01:12;;;;;;;4.07;2.60;;;23.10;75.60;;;24.20;47.52;100594.72;5031713;28;20644;-73
2022/08/03 01:03:40;;;;;;;3.30;3.00;;;23.10;75.80;;;24.12;47.32;100596.75;5031633;28;20641;-70
2022/08/03 01:06:14;;;;;;;4.93;2.90;;;23.00;76.10;;;24.11;47.65;100593.25;5032198;28;20659;-71
2022/08/03 01:09:00;;;;;;;3.53;3.10;;;23.00;76.30;;;24.14;47.97;100589.38;5030039;28;20632;-71
2022/08/03 01:12:09;;;;;;;3.40;3.20;;;23.00;77.20;;;24.14;47.54;100584.88;5031616;28;21220;-71
2022/08/03 01:14:46;;;;;;;2.80;2.60;;;23.00;76.70;;;24.08;48.01;100584.84;5029815;28;20621;-71
2022/08/03 01:17:38;;;;;;;3.30;3.00;;;23.00;77.10;;;24.10;47.86;100582.81;5012605;28;20613;-71
2022/08/03 01:20:10;;;;;;;3.77;3.37;;;23.00;77.30;;;24.12;48.09;100583.41;5012805;28;20728;-70
2022/08/03 01:22:58;;;;;;;4.07;3.40;;;23.00;77.40;;;24.07;48.87;100570.69;4997353;28;21259;-71
2022/08/03 01:26:13;;;;;;;4.13;2.90;;;23.00;77.70;;;24.05;49.47;100575.41;5029710;28;20641;-72
2022/08/03 01:29:29;;;;;;;3.40;3.07;;;23.00;78.50;;;24.04;49.19;100581.75;5010819;28;20633;-69
2022/08/03 01:32:06;;;;;;;3.10;2.90;;;22.90;79.10;;;23.95;49.60;100579.41;5030635;28;20675;-68
2022/08/03 01:35:21;;;;;;;3.83;3.47;;;22.80;79.50;;;23.88;50.02;100569.56;5031957;28;21187;-70
2022/08/03 01:37:57;;;;;;;3.30;3.10;;;22.80;80.10;;;23.91;49.50;100577.13;5029730;28;20623;-73
2022/08/03 01:40:27;;;;;;;4.23;3.90;;;22.80;80.00;;;23.95;49.32;100574.91;5012018;28;21000;-70
2022/08/03 01:42:56;;;;;;;4.00;3.60;;;22.80;80.10;;;24.05;49.29;100580.72;5030337;28;21190;-71
2022/08/03 01:45:26;;;;;;;4.83;3.57;;;22.90;79.80;;;24.17;48.68;100568.47;5012472;28;20648;-72
2022/08/03 01:47:54;;;;;;;3.73;3.43;;;23.00;79.50;;;24.17;49.16;100578.31;5013023;28;20613;-72
2022/08/03 01:50:26;;;;;;;4.00;3.67;;;23.00;79.40;;;24.14;49.04;100571.53;5012161;28;20633;-72
2022/08/03 01:52:55;;;;;;;4.73;3.77;;;23.00;79.30;;;24.12;49.11;100573.59;4996483;28;21131;-71
2022/08/03 01:55:28;;;;;;;4.20;3.80;;;23.10;79.30;;;24.12;49.10;100575.41;5012064;28;20635;-72
2022/08/03 01:57:56;;;;;;;4.17;3.83;;;23.10;79.50;;;24.13;49.34;100575.22;5013065;28;20641;-71
2022/08/03 02:00:36;;;;;;;8.37;4.07;;;23.00;79.60;;;24.03;49.49;100569.41;5013682;28;20609;-71
2022/08/03 02:03:06;;;;;;;4.50;3.57;;;23.00;80.10;;;23.91;49.75;100569.13;5030561;28;21210;-72
2022/08/03 02:05:33;;;;;;;4.80;3.70;;;22.80;80.40;;;23.81;50.20;100570.53;5014094;28;20621;-71
2022/08/03 02:08:03;;;;;;;3.80;3.40;;;22.80;80.80;;;23.83;50.05;100565.81;5012932;28;21145;-71
2022/08/03 02:10:32;;;;;;;4.30;3.53;;;22.70;81.20;;;23.74;50.61;100559.03;5030117;28;20621;-72
2022/08/03 02:13:04;;;;;;;4.07;3.67;;;22.70;81.80;;;23.66;50.44;100564.53;5033379;28;20671;-74
2022/08/03 02:15:35;;;;;;;4.07;3.67;;;22.60;82.10;;;23.63;50.81;100567.56;5033181;28;20636;-72
2022/08/03 02:18:06;;;;;;;4.07;3.77;;;22.60;82.60;;;23.64;50.91;100564.69;5034108;28;20619;-72
2022/08/03 02:20:36;;;;;;;3.97;3.03;;;22.50;83.00;;;23.44;51.69;100568.25;5015499;28;20653;-75
2022/08/03 02:23:05;;;;;;;3.63;3.33;;;22.40;83.50;;;23.43;51.58;100566.59;5016642;28;20617;-71
2022/08/03 02:25:43;;;;;;;3.90;3.43;;;22.40;84.00;;;23.50;51.41;100570.97;5034353;28;20620;-71
2022/08/03 02:28:18;;;;;;;5.40;3.87;;;22.40;84.10;;;23.42;51.57;100568.47;5017038;28;20640;-71
2022/08/03 02:30:53;;;;;;;3.60;3.30;;;22.30;84.50;;;23.33;51.56;100564.31;5015033;28;20699;-74
2022/08/03 02:33:32;;;;;;;3.67;3.37;;;22.30;85.00;;;23.22;52.04;100562.13;5012536;28;20666;-73
2022/08/03 02:36:01;;;;;;;7.60;3.20;;;22.20;85.30;;;23.24;51.38;100559.28;5016467;28;20627;-71
2022/08/03 02:38:33;;;;;;;3.83;3.53;;;22.20;84.90;;;23.17;51.12;100560.06;5016288;28;21232;-71
2022/08/03 02:41:05;;;;;;;4.83;3.57;;;22.10;84.30;;;23.21;51.08;100565.00;5024396;28;20643;-71
2022/08/03 02:43:35;;;;;;;4.10;3.80;;;22.10;84.50;;;23.24;51.21;100565.44;5000849;28;20623;-71
2022/08/03 02:46:33;;;;;;;3.73;3.20;;;22.10;85.00;;;23.22;51.32;100566.63;5015213;28;20982;-73
2022/08/03 02:49:04;;;;;;;3.60;3.30;;;22.10;85.00;;;23.23;51.09;100569.13;5008586;28;20716;-72
2022/08/03 02:51:53;;;;;;;3.80;3.50;;;22.10;84.90;;;23.28;50.93;100560.53;5018044;28;20663;-71
2022/08/03 02:54:23;;;;;;;3.83;3.40;;;22.10;84.80;;;23.24;51.07;100560.09;5015443;28;21383;-71
2022/08/03 02:56:53;;;;;;;3.93;3.63;;;22.10;85.00;;;23.29;50.93;100560.34;5015612;28;20637;-71
2022/08/03 02:59:22;;;;;;;3.87;3.50;;;22.10;85.20;;;23.34;50.82;100557.94;5034485;28;21156;-71
2022/08/03 03:01:50;;;;;;;4.53;3.63;;;22.20;85.10;;;23.26;50.77;100554.56;5016288;28;20637;-71
2022/08/03 03:04:18;;;;;;;3.80;3.27;;;22.10;84.90;;;23.25;51.19;100552.94;5017391;28;20616;-71
2022/08/03 03:06:47;;;;;;;3.63;3.33;;;22.20;85.40;;;23.21;51.17;100557.00;5015862;28;20647;-75
2022/08/03 03:09:15;;;;;;;8.80;3.90;;;22.10;85.20;;;23.17;51.27;100560.06;5032376;28;20632;-74
2022/08/03 03:11:43;;;;;;;4.00;3.60;;;22.10;85.60;;;23.05;51.75;100553.63;5006074;28;20666;-73
2022/08/03 03:14:12;;;;;;;4.37;3.90;;;22.10;86.00;;;23.10;51.66;100548.56;5015976;28;20615;-73
2022/08/03 03:16:42;;;;;;;4.50;3.73;;;22.10;86.10;;;23.09;51.60;100552.22;5015163;28;20773;-74
2022/08/03 03:19:12;;;;;;;7.00;3.70;;;22.10;86.20;;;23.19;51.34;100545.75;5015264;28;20616;-71
2022/08/03 03:21:39;;;;;;;4.77;3.70;;;22.10;86.30;;;23.18;51.58;100555.56;5014823;28;20663;-73
2022/08/03 03:24:08;;;;;;;7.03;3.70;;;22.10;86.50;;;23.04;51.90;100549.28;5013908;28;20629;-71
2022/08/03 03:26:36;;;;;;;4.00;3.47;;;22.00;86.90;;;23.07;51.84;100551.59;5013946;28;20637;-72
2022/08/03 03:29:08;;;;;;;6.13;4.00;;;22.00;87.10;;;23.08;51.93;100549.75;5031359;28;20639;-71
2022/08/03 03:31:36;;;;;;;5.80;3.60;;;22.00;87.40;;;23.03;51.99;100554.81;5031907;28;20636;-71
2022/08/03 03:34:03;;;;;;;5.90;3.80;;;21.90;87.70;;;22.98;52.12;100566.03;5032059;28;20697;-71
2022/08/03 03:36:32;;;;;;;3.70;3.40;;;21.90;87.80;;;22.99;52.46;100559.72;5015206;28;20621;-71
2022/08/03 03:38:59;;;;;;;4.13;3.70;;;21.90;88.10;;;23.00;51.92;100568.50;5030617;28;21192;-74
2022/08/03 03:41:42;;;;;;;3.73;3.40;;;21.90;88.00;;;22.98;52.16;100557.22;5031780;28;20747;-71
2022/08/03 03:44:09;;;;;;;5.23;3.80;;;21.90;88.20;;;22.92;52.21;100560.66;5014657;28;20621;-75
2022/08/03 03:46:37;;;;;;;6.53;3.80;;;21.90;88.60;;;22.88;52.45;100564.72;5033084;28;20639;-70
2022/08/03 03:49:08;;;;;;;3.40;3.13;;;21.80;88.80;;;22.94;52.19;100566.59;5013641;28;20641;-73
2022/08/03 03:51:35;;;;;;;4.20;3.80;;;21.80;89.10;;;23.01;52.23;100564.84;5031722;28;20668;-71
2022/08/03 03:54:05;;;;;;;3.93;3.53;;;21.90;89.20;;;23.08;51.77;100566.53;4997501;28;20668;-72
2022/08/03 03:56:32;;;;;;;6.37;4.00;;;21.90;88.80;;;23.13;51.89;100563.28;5014282;28;21197;-71
2022/08/03 03:59:02;;;;;;;5.00;3.77;;;22.00;88.80;;;23.11;51.57;100566.16;5013853;28;20600;-69
2022/08/03 04:01:30;;;;;;;3.83;3.53;;;22.00;88.50;;;23.02;51.80;100564.63;5032288;28;20636;-71
2022/08/03 04:03:57;;;;;;;3.53;3.30;;;21.90;88.50;;;22.98;51.99;100565.22;5032485;28;20652;-71
2022/08/03 04:11:59;;;;;;;6.63;3.90;;;21.80;89.20;;;22.86;52.34;100564.91;5010098;28;21018;-71
2022/08/03 04:14:34;;;;;;;4.03;3.60;;;21.70;89.60;;;22.79;52.68;100564.03;5031680;28;20627;-69
2022/08/03 04:17:05;;;;;;;3.80;3.50;;;21.70;90.00;;;22.75;52.64;100568.09;5012809;28;21222;-71
2022/08/03 04:19:42;;;;;;;3.90;3.70;;;21.70;90.50;;;22.78;52.92;100566.88;5031354;28;20621;-71
2022/08/03 04:22:11;;;;;;;8.93;3.77;;;21.60;90.30;;;22.77;52.93;100563.38;5014390;28;20661;-70
2022/08/03 04:24:52;;;;;;;4.40;4.00;;;21.70;90.50;;;22.81;53.08;100564.66;5032132;28;20623;-73
2022/08/03 04:27:28;;;;;;;3.97;3.67;;;21.70;90.70;;;22.85;52.72;100571.25;5013264;28;20637;-73
2022/08/03 04:29:56;;;;;;;4.17;3.80;;;21.80;90.50;;;22.92;52.76;100574.78;5013547;28;20629;-71
2022/08/03 04:32:27;;;;;;;4.23;3.77;;;21.90;90.50;;;23.28;51.82;100565.84;5013454;28;20661;-71
2022/08/03 04:34:54;;;;;;;4.13;3.67;;;22.10;90.50;;;23.50;51.16;100575.47;4997091;28;20940;-71
2022/08/03 04:37:46;;;;;;;4.50;3.73;;;22.40;89.50;;;23.68;50.95;100579.25;4995880;28;20693;-71
2022/08/03 04:40:29;;;;;;;4.23;3.90;;;22.60;88.80;;;23.89;50.77;100587.16;5006749;28;21044;-71
2022/08/03 04:42:58;;;;;;;8.80;3.83;;;22.80;88.00;;;24.10;50.42;100585.47;5014308;28;20621;-71
2022/08/03 04:45:27;;;;;;;3.90;3.50;;;23.00;87.70;;;24.31;49.70;100588.00;5029894;28;20644;-75
2022/08/03 04:47:55;;;;;;;4.07;3.67;;;23.20;87.10;;;24.52;49.58;100588.69;5005385;28;21015;-71
2022/08/03 04:50:22;;;;;;;4.27;3.87;;;23.40;86.60;;;24.68;49.59;100590.97;4996368;28;20621;-71
2022/08/03 04:52:49;;;;;;;4.67;4.17;;;23.60;86.30;;;24.74;48.92;100596.53;5014145;28;20679;-71
2022/08/03 04:55:31;;;;;;;4.00;3.60;;;23.60;86.10;;;24.93;49.26;100601.94;5030002;28;20620;-69
2022/08/03 04:57:59;;;;;;;3.97;3.67;;;23.80;86.10;;;25.08;49.07;100596.41;5029668;28;20735;-69
2022/08/03 05:00:27;;;;;;;5.13;3.40;;;23.90;86.20;;;25.36;48.22;100594.34;5012273;28;20652;-71
2022/08/03 05:02:54;;;;;;;4.30;3.33;;;24.10;85.30;;;25.51;47.84;100594.16;4993663;28;20606;-71
2022/08/03 05:05:22;;;;;;;4.90;3.90;;;24.30;84.70;;;25.82;47.31;100595.09;5011002;28;21009;-72
2022/08/03 05:07:50;;;;;;;4.13;3.73;;;24.60;84.30;;;26.00;46.71;100592.56;5012440;28;21054;-71
2022/08/03 05:10:17;;;;;;;4.97;4.17;;;24.80;83.70;;;26.21;47.20;100602.19;5026627;28;21276;-71
2022/08/03 05:12:46;;;;;;;6.40;4.17;;;25.00;83.70;;;26.36;47.09;100599.25;5030085;28;21132;-69
2022/08/03 05:15:14;;;;;;;5.23;4.63;;;25.20;83.80;;;26.44;46.81;100599.81;5012987;28;20631;-71
2022/08/03 05:17:40;;;;;;;5.17;4.70;;;25.30;82.80;;;26.70;46.25;100596.16;5030839;28;20640;-71
2022/08/03 05:20:08;;;;;;;6.80;4.90;;;25.50;82.50;;;26.80;46.24;100596.53;5029346;28;20727;-71
2022/08/03 05:22:35;;;;;;;5.30;4.03;;;25.60;82.00;;;27.01;45.57;100588.16;5028549;28;20755;-69
2022/08/03 05:25:03;;;;;;;5.50;4.50;;;25.80;81.40;;;27.54;44.87;100592.03;5012486;28;20635;-69
2022/08/03 05:27:30;;;;;;;6.20;4.30;;;26.20;80.80;;;27.75;44.10;100596.13;5029631;28;20641;-70
2022/08/03 05:29:57;;;;;;;4.60;4.20;;;26.50;79.80;;;28.20;43.58;100588.63;5028992;28;20640;-71
2022/08/03 05:32:44;;;;;;;4.10;3.80;;;26.90;79.10;;;28.14;43.18;100598.41;5027002;28;20752;-72
2022/08/03 05:35:11;;;;;;;5.20;4.30;;;26.90;78.40;;;28.65;42.11;100606.00;5028439;28;20632;-71
2022/08/03 05:37:58;;;;;;;5.67;4.70;;;27.20;77.80;;;29.26;41.64;100610.25;5028930;28;20616;-71
2022/08/03 05:40:25;;;;;;;4.77;3.90;;;27.70;76.60;;;29.48;40.22;100609.44;5027722;28;21041;-71
2022/08/03 05:42:52;;;;;;;5.87;4.37;;;28.10;75.10;;;29.86;39.42;100606.28;5031362;28;21207;-71
2022/08/03 05:45:19;;;;;;;4.40;4.00;;;28.50;73.60;;;30.29;38.76;100609.31;5011650;28;20633;-72
2022/08/03 05:47:51;;;;;;;4.77;3.90;;;28.90;72.10;;;30.65;38.21;100616.22;5029416;28;20676;-69
2022/08/03 05:50:18;;;;;;;5.40;3.90;;;29.30;70.70;;;31.10;37.41;100621.63;5029571;28;20617;-71
2022/08/03 05:52:46;;;;;;;4.10;3.73;;;29.70;70.00;;;31.37;36.33;100609.09;5029965;28;20656;-72
2022/08/03 05:55:13;;;;;;;4.33;3.83;;;30.00;68.90;;;31.89;35.50;100610.44;5028983;28;20610;-71
2022/08/03 05:57:41;;;;;;;5.80;4.20;;;30.40;68.50;;;32.54;34.09;100615.84;5030632;28;20637;-71
2022/08/03 06:00:11;;;;;;;4.27;3.80;;;30.80;66.10;;;33.22;33.14;100622.44;5029809;28;20613;-72
2022/08/03 06:02:41;;;;;;;3.97;3.50;;;31.20;64.60;;;33.68;31.43;100620.88;5012239;28;20664;-71
2022/08/03 06:05:09;;;;;;;3.90;3.70;;;31.50;62.30;;;34.15;30.56;100625.22;5012812;28;20647;-71
2022/08/03 06:07:36;;;;;;;4.60;3.60;;;31.80;61.60;;;34.75;29.43;100621.88;5030180;28;20636;-71
2022/08/03 06:10:04;;;;;;;8.03;3.80;;;32.30;60.40;;;34.90;29.49;100621.88;5030071;28;21223;-71
2022/08/03 06:12:51;;;;;;;4.37;3.87;;;32.60;59.50;;;35.75;28.50;100614.78;5015768;28;20660;-71
2022/08/03 06:15:19;;;;;;;3.00;2.90;;;33.10;58.70;;;36.22;28.38;100617.88;5029235;28;21057;-71
2022/08/03 06:17:50;;;;;;;3.93;3.53;;;33.50;58.80;;;36.69;27.67;100622.78;5030359;28;20633;-71
2022/08/03 06:20:19;;;;;;;4.60;4.10;;;33.80;58.30;;;36.97;27.58;100618.53;5011572;28;20617;-71
2022/08/03 06:22:47;;;;;;;4.30;3.90;;;34.00;58.30;;;37.33;27.57;100615.19;5013949;28;20707;-71
2022/08/03 06:25:18;;;;;;;4.00;3.80;;;34.20;57.80;;;37.93;26.25;100619.19;5030311;28;20621;-71
2022/08/03 06:27:47;;;;;;;8.53;4.27;;;34.70;57.20;;;38.64;25.70;100621.81;5030080;28;20631;-67
2022/08/03 06:30:15;;;;;;;3.80;3.50;;;35.20;56.00;;;39.39;24.53;100627.16;5029652;28;20643;-72
2022/08/03 06:32:47;;;;;;;3.77;3.47;;;35.50;54.90;;;40.18;23.40;100628.63;5029397;28;20675;-70
2022/08/03 06:35:18;;;;;;;3.83;3.63;;;35.70;54.60;;;40.66;23.19;100620.69;5029873;28;20629;-67
2022/08/03 06:37:48;;;;;;;4.40;4.00;;;35.80;54.50;;;40.91;22.47;100617.41;5029125;28;20617;-70
2022/08/03 06:40:28;;;;;;;3.03;2.93;;;36.00;54.00;;;41.47;21.65;100619.50;5027302;28;20633;-69
2022/08/03 06:42:57;;;;;;;4.00;3.60;;;36.20;53.40;;;41.65;22.02;100621.22;5013214;28;20635;-72
2022/08/03 06:45:25;;;;;;;5.33;3.40;;;36.30;52.90;;;42.65;20.66;100616.59;5028106;28;21021;-69
2022/08/03 06:48:09;;;;;;;3.80;3.50;;;36.90;52.60;;;43.46;19.92;100621.00;5014111;28;20628;-70
2022/08/03 06:50:38;;;;;;;3.37;3.17;;;37.30;51.70;;;43.85;19.86;100628.13;5027755;28;21297;-67
2022/08/03 06:53:06;;;;;;;4.07;3.67;;;37.60;51.40;;;44.13;19.72;100618.25;5012890;28;21024;-67
2022/08/03 06:55:34;;;;;;;3.97;3.57;;;37.80;51.40;;;44.54;18.80;100622.97;5028381;28;21310;-69
2022/08/03 06:58:08;;;;;;;3.20;3.10;;;38.20;50.20;;;44.84;18.66;100620.94;5031165;28;20612;-67
2022/08/03 07:00:34;;;;;;;3.50;3.30;;;38.40;49.90;;;45.05;19.00;100629.94;5031498;28;20660;-67
2022/08/03 07:03:01;;;;;;;3.80;3.50;;;38.60;49.90;;;45.23;18.47;100626.72;5032788;28;20704;-72
2022/08/03 07:05:29;;;;;;;7.37;3.57;;;38.80;49.20;;;45.29;18.30;100635.56;5031806;28;20640;-69
2022/08/03 07:07:58;;;;;;;3.50;3.30;;;39.00;48.60;;;44.90;18.79;100630.59;5033317;28;21115;-70
2022/08/03 07:10:25;;;;;;;3.70;3.50;;;39.00;48.80;;;44.95;18.31;100628.44;5028563;28;20664;-68
2022/08/03 07:12:52;;;;;;;3.93;3.60;;;38.90;48.50;;;44.62;18.94;100630.34;5017970;28;20617;-70
2022/08/03 07:15:23;;;;;;;3.00;2.90;;;38.60;48.40;;;44.11;19.19;100638.97;5018368;28;20629;-71
2022/08/03 07:18:10;;;;;;;4.93;3.03;;;38.40;48.30;;;43.32;20.04;100627.84;5033047;28;20616;-70
2022/08/03 07:20:37;;;;;;;3.43;3.17;;;38.10;48.30;;;42.75;20.38;100632.72;5032153;28;20669;-70
2022/08/03 07:23:03;;;;;;;3.73;3.53;;;37.60;48.70;;;42.08;20.66;100627.69;5016467;28;20652;-71
2022/08/03 07:25:30;;;;;;;3.83;3.63;;;37.00;48.80;;;41.88;20.51;100625.50;5032452;28;21157;-67
2022/08/03 07:27:57;;;;;;;6.77;4.30;;;36.80;49.00;;;41.49;21.31;100629.00;5033748;28;20616;-67
2022/08/03 07:30:24;;;;;;;3.90;3.60;;;36.70;49.00;;;41.30;21.56;100616.69;5027699;28;21013;-65
2022/08/03 07:32:52;;;;;;;3.50;3.20;;;36.50;49.30;;;40.89;22.10;100620.44;5031681;28;20716;-66
2022/08/03 07:35:19;;;;;;;2.90;2.80;;;36.40;49.40;;;40.40;22.51;100623.22;5032896;28;20616;-68
2022/08/03 07:37:52;;;;;;;3.50;3.23;;;36.10;49.70;;;39.84;22.76;100622.75;5029249;28;20613;-67
2022/08/03 07:40:21;;;;;;;3.10;2.90;;;35.80;50.00;;;39.49;23.00;100626.94;5031094;28;20698;-70
2022/08/03 07:42:48;;;;;;;3.20;3.03;;;35.60;50.10;;;39.29;23.78;100622.66;5014928;28;20613;-67
2022/08/03 07:45:22;;;;;;;2.90;2.70;;;35.50;50.20;;;39.02;23.74;100624.50;5030857;28;20635;-68
2022/08/03 07:47:49;;;;;;;3.10;3.00;;;35.30;50.30;;;38.51;24.45;100630.72;5032012;28;20640;-74
2022/08/03 07:50:20;;;;;;;3.30;3.10;;;35.00;50.60;;;38.06;25.02;100621.22;5032501;28;20621;-68
2022/08/03 07:52:48;;;;;;;3.53;3.30;;;34.60;50.90;;;37.66;24.85;100618.94;5031708;28;20644;-67
2022/08/03 07:55:20;;;;;;;2.93;2.83;;;34.40;51.30;;;37.09;25.29;100611.63;5032037;28;20791;-67
2022/08/03 07:58:08;;;;;;;2.90;2.80;;;34.00;51.00;;;37.02;25.79;100611.13;5032791;28;20613;-67
2022/08/03 08:00:35;;;;;;;3.57;3.37;;;33.90;51.20;;;36.79;25.49;100617.25;5030802;28;21246;-67
2022/08/03 08:03:03;;;;;;;2.97;2.77;;;33.80;50.90;;;36.81;25.38;100612.34;5031255;28;20604;-69
2022/08/03 08:05:30;;;;;;;2.93;2.83;;;33.90;50.70;;;36.65;26.05;100615.47;5029058;28;20643;-68
2022/08/03 08:07:57;;;;;;;3.30;3.10;;;33.80;51.00;;;36.45;26.38;100613.69;5031487;28;20739;-68
2022/08/03 08:10:24;;;;;;;2.77;2.60;;;33.60;51.20;;;36.53;26.18;100607.66;5028906;28;20632;-66
2022/08/03 08:12:51;;;;;;;3.40;3.10;;;33.70;51.40;;;36.52;26.33;100603.31;5031764;28;20651;-68
2022/08/03 08:15:18;;;;;;;6.70;2.90;;;33.70;51.40;;;36.31;26.88;100608.03;5024620;28;21050;-64
2022/08/03 08:17:47;;;;;;;3.20;3.00;;;33.70;51.70;;;36.36;26.83;100599.84;5027578;28;20637;-66
2022/08/03 08:20:26;;;;;;;3.40;3.20;;;33.70;51.80;;;36.00;27.12;100603.03;5030325;28;20675;-63
2022/08/03 08:23:00;;;;;;;3.50;3.30;;;33.50;51.90;;;35.73;27.39;100597.94;5030606;28;20616;-64
2022/08/03 08:25:30;;;;;;;4.17;3.10;;;33.20;52.10;;;35.52;27.36;100599.88;5031586;28;21081;-66
2022/08/03 08:28:03;;;;;;;4.20;3.80;;;33.00;52.20;;;35.39;27.82;100595.03;5031876;28;20620;-65
2022/08/03 08:30:50;;;;;;;3.20;3.10;;;32.90;52.50;;;35.31;27.71;100600.19;5030548;28;21010;-67
2022/08/03 08:33:17;;;;;;;6.17;3.10;;;32.80;52.20;;;35.29;27.91;100596.94;5031673;28;20683;-66
2022/08/03 08:35:50;;;;;;;3.57;3.37;;;32.80;52.50;;;35.19;27.67;100605.06;5031253;28;20655;-66
2022/08/03 08:38:17;;;;;;;3.37;3.23;;;32.70;52.60;;;35.30;27.86;100595.84;5031891;28;20609;-65
2022/08/03 08:40:45;;;;;;;3.20;3.03;;;32.80;52.70;;;35.36;27.88;100601.00;5027015;28;20645;-66
2022/08/03 08:43:12;;;;;;;3.33;3.13;;;32.90;52.50;;;35.07;27.91;100602.66;5030891;28;20615;-67
2022/08/03 08:45:40;;;;;;;6.90;3.80;;;32.90;52.20;;;34.80;29.23;100591.25;5030728;28;20639;-66
2022/08/03 08:48:09;;;;;;;3.83;3.53;;;32.80;52.60;;;34.97;28.41;100592.56;5013649;28;20629;-69
2022/08/03 08:50:37;;;;;;;3.60;3.30;;;32.90;52.70;;;35.00;28.28;100591.25;5030447;28;20648;-67
2022/08/03 08:53:08;;;;;;;5.87;3.47;;;32.90;52.80;;;35.41;27.94;100586.59;5014533;28;20636;-68
2022/08/03 08:55:45;;;;;;;4.90;3.63;;;33.10;52.60;;;35.48;28.23;100587.16;5024327;28;20629;-68
2022/08/03 08:58:30;;;;;;;8.53;3.40;;;33.10;52.40;;;35.49;27.84;100588.78;5029762;28;20617;-68
2022/08/03 09:00:57;;;;;;;3.60;3.37;;;33.20;52.10;;;35.13;28.19;100590.72;5013217;28;21020;-67
2022/08/03 09:03:24;;;;;;;3.83;3.53;;;33.10;51.90;;;35.13;28.40;100585.28;5032002;28;21231;-67
2022/08/03 09:05:58;;;;;;;3.83;3.53;;;33.00;52.10;;;35.35;28.19;100582.28;5031470;28;20613;-68
2022/08/03 09:08:25;;;;;;;4.37;4.00;;;33.10;52.30;;;35.33;27.80;100579.81;5030386;28;20736;-67
2022/08/03 09:10:52;;;;;;;3.80;3.40;;;33.10;52.20;;;35.13;28.25;100584.47;5013240;28;20633;-67
2022/08/03 09:13:20;;;;;;;3.20;3.00;;;32.90;52.10;;;35.02;28.88;100583.66;5030240;28;20732;-66
2022/08/03 09:15:48;;;;;;;7.30;3.13;;;33.10;52.40;;;35.43;28.01;100579.00;5010845;28;20665;-66
2022/08/03 09:18:30;;;;;;;4.57;3.57;;;33.20;52.10;;;35.82;26.85;100580.78;5025149;28;20620;-67
2022/08/03 09:21:21;;;;;;;6.33;3.60;;;33.60;51.40;;;36.06;26.71;100591.88;5011198;28;20675;-66
2022/08/03 09:24:01;;;;;;;4.07;3.40;;;33.90;51.20;;;36.06;26.74;100585.59;5019193;28;20675;-67
2022/08/03 09:26:35;;;;;;;3.43;3.20;;;34.00;50.60;;;35.52;27.49;100577.38;5014767;28;20733;-65
2022/08/03 09:29:03;;;;;;;4.00;3.70;;;33.70;50.80;;;35.85;27.35;100580.25;5012713;28;21073;-66
2022/08/03 09:31:42;;;;;;;3.83;3.40;;;33.80;51.00;;;36.21;26.66;100577.38;5029744;28;20729;-66
2022/08/03 09:34:13;;;;;;;3.77;3.47;;;34.00;50.70;;;36.40;26.53;100583.78;5031028;28;20660;-71
2022/08/03 09:36:48;;;;;;;9.77;3.73;;;34.30;50.60;;;36.16;26.72;100577.44;5031775;28;20627;-66
2022/08/03 09:39:21;;;;;;;6.07;3.40;;;34.20;50.60;;;36.24;27.14;100576.84;5030017;28;21050;-68
2022/08/03 09:42:14;;;;;;;3.13;3.00;;;34.40;50.30;;;36.45;26.35;100581.91;5024610;28;20667;-67
2022/08/03 09:44:47;;;;;;;3.60;3.30;;;34.50;50.00;;;36.60;26.26;100572.81;5028997;28;20694;-69
2022/08/03 09:47:27;;;;;;;3.70;3.10;;;34.70;49.80;;;36.70;25.89;100577.34;5022043;28;20643;-71
2022/08/03 09:50:04;;;;;;;3.10;3.00;;;34.70;49.70;;;36.50;26.16;100568.25;5027014;28;20775;-68
2022/08/03 09:52:38;;;;;;;4.20;3.10;;;34.70;49.50;;;36.45;26.40;100562.88;5029036;28;21194;-66
2022/08/03 09:55:22;;;;;;;3.20;3.00;;;34.60;49.70;;;36.62;25.79;100565.19;5013216;28;21254;-68
2022/08/03 09:58:09;;;;;;;4.03;3.07;;;34.70;49.50;;;36.58;25.31;100562.25;5027644;28;20620;-68
2022/08/03 10:01:06;;;;;;;3.10;2.90;;;34.70;48.80;;;36.61;25.38;100563.56;5010889;28;20651;-68
2022/08/03 10:03:58;;;;;;;3.20;3.00;;;34.80;48.90;;;36.39;25.83;100557.72;5026223;28;20641;-67
2022/08/03 10:06:30;;;;;;;4.50;4.03;;;34.70;48.80;;;36.11;25.96;100561.97;5030617;28;20670;-68
2022/08/03 10:09:15;;;;;;;4.13;3.87;;;34.60;48.80;;;36.07;26.49;100565.53;5031200;28;20614;-68
2022/08/03 10:11:45;;;;;;;3.47;3.17;;;34.40;49.40;;;36.16;26.46;100564.63;5029582;28;20637;-70
2022/08/03 10:14:18;;;;;;;4.37;3.40;;;34.50;49.20;;;36.14;26.01;100560.59;5030301;28;21249;-73
2022/08/03 10:16:47;;;;;;;5.43;3.30;;;34.40;48.80;;;35.97;26.01;100555.50;5024645;28;20643;-68
2022/08/03 10:19:15;;;;;;;5.00;3.60;;;34.40;49.10;;;36.04;25.77;100549.78;5029665;28;21085;-70
2022/08/03 10:21:54;;;;;;;3.33;3.17;;;34.30;48.60;;;35.81;26.09;100548.50;5010349;28;20669;-68
2022/08/03 10:24:26;;;;;;;3.33;3.13;;;34.30;48.60;;;35.89;25.97;100542.50;5027263;28;20964;-68
2022/08/03 10:27:03;;;;;;;3.60;3.40;;;34.10;49.10;;;35.96;26.21;100542.22;5010660;28;20625;-69
2022/08/03 10:29:37;;;;;;;4.33;3.40;;;34.20;49.40;;;36.19;26.12;100542.34;5030300;28;20624;-68
2022/08/03 10:32:34;;;;;;;3.93;3.60;;;34.30;49.20;;;36.25;26.26;100540.41;5029482;28;20640;-68
2022/08/03 10:35:22;;;;;;;3.73;2.93;;;34.40;49.20;;;36.25;26.05;100535.78;5021566;28;20665;-68
2022/08/03 10:38:01;;;;;;;3.60;3.30;;;34.40;48.80;;;36.38;26.48;100527.00;5006246;28;21184;-69
2022/08/03 10:40:32;;;;;;;3.63;3.33;;;34.60;49.60;;;36.28;26.17;100529.81;5016739;28;20612;-67